AirNav   Air Wisconsin Up To $57,000 Bonus
 
 666 users online  

N98 Boyne City Municipal Airport
Boyne City, Michigan, USA

GOING TO BOYNE CITY?


FAA INFORMATION EFFECTIVE 08 SEPTEMBER 2022

Location

FAA Identifier: N98
Lat/Long: 45-12-31.7284N 084-59-23.5880W
45-12.528807N 084-59.393133W
45.2088134,-84.9898856
(estimated)
Elevation: 659.6 ft. / 201.0 m (surveyed)
Variation: 05W (1985)
From city: 1 mile SE of BOYNE CITY, MI
Time zone: UTC -4 (UTC -5 during Standard Time)
Zip code: 49712

Airport Operations

Airport use: Open to the public
Activation date: 10/1947
Control tower: no
ARTCC: MINNEAPOLIS CENTER
FSS: LANSING FLIGHT SERVICE STATION
NOTAMs facility: LAN (NOTAM-D service available)
Attendance: UNATNDD
Wind indicator: lighted
Segmented circle: yes
Lights: ACTVT REIL RWY 27; PAPI RWY 09; MIRL RWY 09/27 - 122.9.

Airport Communications

CTAF/UNICOM: 122.8
WX AWOS-3 at CVX (13 nm NW): 120.0 (231-237-9703)
WX AWOS-3 at MGN (13 nm N): 119.925 (231-347-5231)
WX AWOS-3 at ACB (16 nm SW): 119.275 (231-533-8941)
WX ASOS at GLR (17 nm SE): 118.375 (989-732-1571)
  • APCH/DEP SVC PRVDD BY MINNEAPOLIS ARTCC (ZMP) ON FREQ 134.6/354.05 (PELLSTON RCAG).

Nearby radio navigation aids

VOR radial/distance  VOR name  Freq  Var
GLRr320/16.9GAYLORD VOR/DME109.2006W
PLNr214/28.8PELLSTON VORTAC111.8006W
CGGr347/(33.5)GRAYLING VOR109.8006W

 
NDB name  Hdg/Dist  Freq  Var  ID
BANGU333/14.037506WGL --. .-..
GRAYLING352/28.435906WGYG --. -.-- --.

Airport Services

Fuel available: 100LL
100LL:SELF SER.
Parking: tiedowns
Bottled oxygen: NONE
Bulk oxygen: NONE

Runway Information

Runway 9/27

Dimensions: 4001 x 75 ft. / 1220 x 23 m
Surface: asphalt, in good condition
Runway edge lights: medium intensity
RUNWAY 9  RUNWAY 27
Latitude: 45-12.543998N45-12.513615N
Longitude: 084-59.858375W084-58.927892W
Elevation: 653.0 ft.656.0 ft.
Traffic pattern: leftleft
Runway heading: 098 magnetic, 093 true278 magnetic, 273 true
Displaced threshold: 599 ft.no
Markings: nonprecision, in good conditionnonprecision, in good condition
Visual slope indicator: 2-light PAPI on left (4.00 degrees glide path)
Runway end identifier lights: noyes
Touchdown point: yes, no lightsyes, no lights
Obstructions: 19 ft. road, 201 ft. from runway
+6 FT FENCE, 175 FT DIST; 19 FT ROAD, 197 FT DIST.
38 ft. pline, 734 ft. from runway, 135 ft. left of centerline, 14:1 slope to clear
+4 FT FENCE, 0 FT DIST, 125 FT R.

Airport Ownership and Management from official FAA records

Ownership: Publicly-owned
Owner: CITY OF BOYNE CITY
319 N LAKE ST
BOYNE CITY, MI 49712-2111
Phone 231-582-6597
Manager: MICHAEL CAIN
319 N LAKE ST
BOYNE CITY, MI 49712-2111
Phone 231-582-6597

Airport Operational Statistics

Aircraft based on the field: 15
Single engine airplanes: 12
Multi engine airplanes: 1
Helicopters: 2
    
Aircraft operations: avg 25/day *
71% transient general aviation
29% local general aviation
* for 12-month period ending 31 December 2017

Additional Remarks

RWY 27 +250 FT HILL, 2 NM EAST, 16:1; +20 FT TREES, 480 FT DIST, 145 FT R, 14:1.
DEER & BIRDS ON & INVOF ARPT.
+4 FT FENCE PARL TO RWY, 123 FT SOUTH OF CNTRLN.
ADMIN BLDG ACES: PRESS 5, THEN 3 & 2 SIMUL, THEN 1.
FOR CD CTC MINNEAPOLIS ARTCC AT 651-463-5588.
FIRING RANGE NE OF FLD OPRS AT UNSKED TIMES, FOR ADZY CTC BOYNE CITY POLICE DEPT AT 231-582-6611.

Instrument Procedures

NOTE: All procedures below are presented as PDF files. If you need a reader for these files, you should download the free Adobe Reader.

NOT FOR NAVIGATION. Please procure official charts for flight.
FAA instrument procedures published for use from 8 September 2022 at 0901Z to 6 October 2022 at 0900Z.

 
IAPs - Instrument Approach Procedures
RNAV (GPS) RWY 09   download (248KB)
RNAV (GPS) RWY 27   download (215KB)
NOTE: Special Take-Off Minimums/Departure Procedures apply   download (272KB)

Other nearby airports with instrument procedures:

KBFA - Boyne Mountain Airport (4 nm SE)
KCVX - Charlevoix Municipal Airport (13 nm NW)
KMGN - Harbor Springs Airport (13 nm N)
KACB - Antrim County Airport (16 nm SW)
KGLR - Gaylord Regional Airport (17 nm SE)
 
Loc | Ops | Rwys | IFR | FBO | Links
Com | Nav | Svcs | Stats | Notes
Area around N98 (Boyne City Municipal Airport)
 
Road maps at: MapQuest Bing Google
 
Aerial photo
WARNING: Photo may not be current or correct
Aerial photo of N98 (Boyne City Municipal Airport)
Do you have a better or more recent aerial photo of Boyne City Municipal Airport that you would like to share? If so, please send us your photo.

 
Sectional chart

 
Airport distance calculator
Flying to Boyne City Municipal Airport? Find the distance to fly.

From to N98

Sunrise and sunset
Times for 29-Sep-2022
 Local
(UTC-4)
 Zulu
(UTC)
Morning civil twilight07:0711:07
Sunrise07:3711:37
Sunset19:2423:24
Evening civil twilight19:5323:53

Current date and time
Zulu (UTC)  29-Sep-2022 06:06:03
Local (UTC-4)  29-Sep-2022 02:06:03
 
METAR
KCVX 
13nm NW 
290555Z AUTO 14003KT 10SM CLR 04/03 A3050 RMK AO2 T00350032 10091 20033
KMGN 
14nm N 
290555Z AUTO 00000KT 10SM CLR 01/01 A3051 RMK AO2 T00130011
KACB 
16nm SW 
290555Z AUTO 00000KT 10SM CLR 01/00 A3051 RMK AO2 T00060002 10081 20006 401160006
KGLR 
17nm SE 
290553Z AUTO 00000KT 10SM CLR 00/M02 A3049 RMK AO2 SLP337 T00001022 10083 20000 51004
KPLN 
23nm N 
290554Z AUTO 00000KT 10SM CLR M02/M02 A3051 RMK AO2 SLP339 I1001 I6001 T10171022 10056 21017 50004
TAF
KPLN 
23nm N 
290520Z 2906/3006 00000KT P6SM SKC FM291500 20006KT P6SM SCT250
NOTAMs
Click for the latest NOTAMs
NOTAMs are issued by the DoD/FAA and will open in a separate window not controlled by AirNav.

 

 
 

FBO, Fuel Providers, and Aircraft Ground Support

  
 Business Name 
 
 Contact 
 
 Services / Description 
 
Fuel Prices
 
Comments
  
Boyne City Municipal Airport 231-582-6597
no information available

If you are affiliated with Boyne City Municipal Airport and would like to show here your services, contact info, web link, logo, and more, click here
100LL
SS $5.53 
 Updated 21-Sep-2022
 
   1 read write
SS=Self service
Update Fuel Prices
 

Would you like to see your business listed on this page?

 If your business provides an interesting product or service to pilots, flight crews, aircraft, or users of the Boyne City Municipal Airport, you should consider listing it here.  To start the listing process, click on the button below
 
Add a business
 

Other Pages about Boyne City Municipal Airport

Page from the Michigan Airport Directory (PDF)
 
Update a link
 
Copyright © AirNav, LLC. All rights reserved. Privacy Policy  Contact